LIRQ/FLR METAR and TAF weather

Enter ICAO airport designator
Station Type Date Time Source
LIRQ METAR 2022/01/27 23:20 UTC NOAA

LIRQ 272320Z AUTO VRB01KT 9999 BKN037/// 08/06 Q1026


Station Type Date Time Source
LIRQ Decoded METAR 2022/01/27 23:20 UTC NOAA

Firenze / Peretola, Italy (LIRQ) 43-48N 011-12E 38M
Jan 27, 2022 - 06:20 PM EST / 2022.01.27 2320 UTC
Wind: Variable at 1 MPH (1 KT):0
Visibility: greater than 7 mile(s):0
Sky conditions: mostly cloudy
Temperature: 46 F (8 C)
Dew Point: 42 F (6 C)
Relative Humidity: 87%
Pressure (altimeter): 30.30 in. Hg (1026 hPa)
ob: LIRQ 272320Z AUTO VRB01KT 9999 BKN037/// 08/06 Q1026
cycle: 23

Station Type Date Time Source
LIRQ TAF 2022/01/27 18:22 UTC NOAA

TAF LIRQ 271700Z 2718/2818 VRB05KT 8000 BKN040
BECMG 2718/2720 3000 BR
TEMPO 2721/2806 0800 FG BKN006

Example: see airport list